sensor_id;sensor_type;location;lat;lon;timestamp;pressure;altitude;pressure_sealevel;temperature;humidity
32638;BME280;19045;52.268;10.506;2023-02-28T00:00:53;102167.91;;;0.28;83.68
32638;BME280;19045;52.268;10.506;2023-02-28T00:03:20;102169.16;;;0.24;83.67
32638;BME280;19045;52.268;10.506;2023-02-28T00:05:47;102174.09;;;0.19;83.98
32638;BME280;19045;52.268;10.506;2023-02-28T00:08:13;102164.47;;;0.18;83.70
32638;BME280;19045;52.268;10.506;2023-02-28T00:10:40;102174.66;;;0.13;84.17
32638;BME280;19045;52.268;10.506;2023-02-28T00:13:08;102163.56;;;0.09;84.38
32638;BME280;19045;52.268;10.506;2023-02-28T00:15:34;102171.31;;;0.11;84.13
32638;BME280;19045;52.268;10.506;2023-02-28T00:18:01;102171.91;;;0.05;84.32
32638;BME280;19045;52.268;10.506;2023-02-28T00:20:28;102180.72;;;-0.05;85.02
32638;BME280;19045;52.268;10.506;2023-02-28T00:22:55;102168.69;;;-0.17;85.20
32638;BME280;19045;52.268;10.506;2023-02-28T00:25:24;102164.91;;;-0.14;86.20
32638;BME280;19045;52.268;10.506;2023-02-28T00:27:52;102172.00;;;-0.15;85.99
32638;BME280;19045;52.268;10.506;2023-02-28T00:30:21;102170.31;;;-0.16;85.57
32638;BME280;19045;52.268;10.506;2023-02-28T00:32:48;102167.00;;;-0.18;85.34
32638;BME280;19045;52.268;10.506;2023-02-28T00:35:15;102176.34;;;-0.23;85.48
32638;BME280;19045;52.268;10.506;2023-02-28T00:37:42;102165.66;;;-0.31;85.84
32638;BME280;19045;52.268;10.506;2023-02-28T00:40:09;102167.31;;;-0.30;86.98
32638;BME280;19045;52.268;10.506;2023-02-28T00:42:37;102164.53;;;-0.29;87.10
32638;BME280;19045;52.268;10.506;2023-02-28T00:45:05;102168.84;;;-0.28;86.71
32638;BME280;19045;52.268;10.506;2023-02-28T00:47:33;102165.75;;;-0.14;85.38
32638;BME280;19045;52.268;10.506;2023-02-28T00:50:00;102162.44;;;-0.25;86.33
32638;BME280;19045;52.268;10.506;2023-02-28T00:52:26;102155.94;;;-0.31;87.23
32638;BME280;19045;52.268;10.506;2023-02-28T00:54:53;102170.94;;;-0.31;87.22
32638;BME280;19045;52.268;10.506;2023-02-28T00:57:20;102159.38;;;-0.21;86.17
32638;BME280;19045;52.268;10.506;2023-02-28T00:59:46;102157.16;;;-0.25;86.34
32638;BME280;19045;52.268;10.506;2023-02-28T01:02:13;102169.72;;;-0.37;87.88
32638;BME280;19045;52.268;10.506;2023-02-28T01:04:41;102166.06;;;-0.36;88.67
32638;BME280;19045;52.268;10.506;2023-02-28T01:07:08;102164.13;;;-0.34;88.21
32638;BME280;19045;52.268;10.506;2023-02-28T01:09:35;102165.41;;;-0.38;87.80
32638;BME280;19045;52.268;10.506;2023-02-28T01:12:01;102160.09;;;-0.28;87.17
32638;BME280;19045;52.268;10.506;2023-02-28T01:14:28;102158.31;;;-0.37;87.98
32638;BME280;19045;52.268;10.506;2023-02-28T01:16:54;102161.09;;;-0.39;89.13
32638;BME280;19045;52.268;10.506;2023-02-28T01:19:21;102152.19;;;-0.38;88.14
32638;BME280;19045;52.268;10.506;2023-02-28T01:21:49;102156.31;;;-0.26;87.74
32638;BME280;19045;52.268;10.506;2023-02-28T01:24:16;102155.78;;;-0.29;87.82
32638;BME280;19045;52.268;10.506;2023-02-28T01:26:42;102155.66;;;-0.37;89.38
32638;BME280;19045;52.268;10.506;2023-02-28T01:29:09;102160.53;;;-0.42;89.05
32638;BME280;19045;52.268;10.506;2023-02-28T01:31:36;102149.13;;;-0.43;89.63
32638;BME280;19045;52.268;10.506;2023-02-28T01:34:03;102148.72;;;-0.38;90.00
32638;BME280;19045;52.268;10.506;2023-02-28T01:36:30;102156.50;;;-0.37;89.54
32638;BME280;19045;52.268;10.506;2023-02-28T01:38:58;102153.59;;;-0.34;89.31
32638;BME280;19045;52.268;10.506;2023-02-28T01:41:27;102145.50;;;-0.32;89.25
32638;BME280;19045;52.268;10.506;2023-02-28T01:44:03;102148.81;;;-0.21;88.35
32638;BME280;19045;52.268;10.506;2023-02-28T01:46:30;102146.84;;;-0.19;88.15
32638;BME280;19045;52.268;10.506;2023-02-28T01:49:02;102139.09;;;-0.20;87.81
32638;BME280;19045;52.268;10.506;2023-02-28T01:51:34;102139.63;;;-0.17;88.05
32638;BME280;19045;52.268;10.506;2023-02-28T01:54:07;102136.28;;;-0.19;87.55
32638;BME280;19045;52.268;10.506;2023-02-28T01:56:40;102128.34;;;-0.19;88.21
32638;BME280;19045;52.268;10.506;2023-02-28T01:59:10;102135.06;;;-0.24;88.62
32638;BME280;19045;52.268;10.506;2023-02-28T02:01:38;102119.59;;;-0.19;87.66
32638;BME280;19045;52.268;10.506;2023-02-28T02:04:05;102130.50;;;-0.32;88.54
32638;BME280;19045;52.268;10.506;2023-02-28T02:06:35;102130.78;;;-0.35;89.09
32638;BME280;19045;52.268;10.506;2023-02-28T02:09:04;102133.13;;;-0.32;89.30
32638;BME280;19045;52.268;10.506;2023-02-28T02:11:32;102132.28;;;-0.32;88.55
32638;BME280;19045;52.268;10.506;2023-02-28T02:14:10;102130.91;;;-0.36;88.40
32638;BME280;19045;52.268;10.506;2023-02-28T02:16:51;102128.56;;;-0.39;87.88
32638;BME280;19045;52.268;10.506;2023-02-28T02:19:49;102126.94;;;-0.40;87.57
32638;BME280;19045;52.268;10.506;2023-02-28T02:22:47;102129.16;;;-0.45;87.48
32638;BME280;19045;52.268;10.506;2023-02-28T02:25:29;102130.84;;;-0.54;88.91
32638;BME280;19045;52.268;10.506;2023-02-28T02:28:30;102134.44;;;-0.55;88.84
32638;BME280;19045;52.268;10.506;2023-02-28T02:31:43;102126.69;;;-0.57;89.84
32638;BME280;19045;52.268;10.506;2023-02-28T02:37:23;102126.97;;;-0.50;88.64
32638;BME280;19045;52.268;10.506;2023-02-28T02:40:00;102119.28;;;-0.43;88.36
32638;BME280;19045;52.268;10.506;2023-02-28T02:42:34;102117.75;;;-0.46;88.92
32638;BME280;19045;52.268;10.506;2023-02-28T02:45:05;102120.81;;;-0.41;88.34
32638;BME280;19045;52.268;10.506;2023-02-28T02:47:35;102126.75;;;-0.39;88.85
32638;BME280;19045;52.268;10.506;2023-02-28T02:50:04;102131.16;;;-0.30;88.27
32638;BME280;19045;52.268;10.506;2023-02-28T02:52:37;102131.97;;;-0.20;87.93
32638;BME280;19045;52.268;10.506;2023-02-28T02:55:07;102122.25;;;-0.19;87.53
32638;BME280;19045;52.268;10.506;2023-02-28T02:57:38;102134.72;;;-0.12;87.14
32638;BME280;19045;52.268;10.506;2023-02-28T03:00:09;102133.47;;;-0.08;87.08
32638;BME280;19045;52.268;10.506;2023-02-28T03:02:37;102135.09;;;-0.07;86.71
32638;BME280;19045;52.268;10.506;2023-02-28T03:05:09;102130.38;;;-0.03;87.03
32638;BME280;19045;52.268;10.506;2023-02-28T03:07:42;102138.16;;;-0.02;86.71
32638;BME280;19045;52.268;10.506;2023-02-28T03:10:28;102147.00;;;0.07;86.62
32638;BME280;19045;52.268;10.506;2023-02-28T03:13:14;102146.81;;;0.18;85.54
32638;BME280;19045;52.268;10.506;2023-02-28T03:15:56;102149.72;;;0.25;84.38
32638;BME280;19045;52.268;10.506;2023-02-28T03:18:30;102139.25;;;0.33;84.01
32638;BME280;19045;52.268;10.506;2023-02-28T03:21:06;102150.47;;;0.35;83.29
32638;BME280;19045;52.268;10.506;2023-02-28T03:23:45;102156.38;;;0.46;81.88
32638;BME280;19045;52.268;10.506;2023-02-28T03:26:19;102156.47;;;0.55;80.71
32638;BME280;19045;52.268;10.506;2023-02-28T03:28:53;102155.16;;;0.41;80.62
32638;BME280;19045;52.268;10.506;2023-02-28T03:31:26;102161.59;;;0.38;80.83
32638;BME280;19045;52.268;10.506;2023-02-28T03:33:59;102159.91;;;0.37;80.63
32638;BME280;19045;52.268;10.506;2023-02-28T03:36:30;102154.63;;;0.37;80.80
32638;BME280;19045;52.268;10.506;2023-02-28T03:39:04;102151.84;;;0.39;80.70
32638;BME280;19045;52.268;10.506;2023-02-28T03:41:36;102153.75;;;0.46;78.98
32638;BME280;19045;52.268;10.506;2023-02-28T03:44:08;102153.13;;;0.35;79.81
32638;BME280;19045;52.268;10.506;2023-02-28T03:46:38;102145.50;;;0.32;80.45
32638;BME280;19045;52.268;10.506;2023-02-28T03:49:14;102151.09;;;0.29;80.88
32638;BME280;19045;52.268;10.506;2023-02-28T03:51:43;102151.22;;;0.27;81.33
32638;BME280;19045;52.268;10.506;2023-02-28T03:54:16;102153.03;;;0.27;81.26
32638;BME280;19045;52.268;10.506;2023-02-28T03:56:49;102149.28;;;0.29;80.53
32638;BME280;19045;52.268;10.506;2023-02-28T03:59:21;102149.94;;;0.31;80.57
32638;BME280;19045;52.268;10.506;2023-02-28T04:01:49;102154.81;;;0.36;80.01
32638;BME280;19045;52.268;10.506;2023-02-28T04:04:17;102155.47;;;0.38;79.63
32638;BME280;19045;52.268;10.506;2023-02-28T04:06:45;102153.00;;;0.36;78.91
32638;BME280;19045;52.268;10.506;2023-02-28T04:09:14;102153.25;;;0.33;79.18
32638;BME280;19045;52.268;10.506;2023-02-28T04:11:42;102157.28;;;0.37;78.10
32638;BME280;19045;52.268;10.506;2023-02-28T04:14:10;102154.63;;;0.37;78.10
32638;BME280;19045;52.268;10.506;2023-02-28T04:16:38;102151.38;;;0.43;77.53
32638;BME280;19045;52.268;10.506;2023-02-28T04:19:07;102152.94;;;0.46;76.10
32638;BME280;19045;52.268;10.506;2023-02-28T04:21:35;102150.72;;;0.41;76.78
32638;BME280;19045;52.268;10.506;2023-02-28T04:24:03;102145.31;;;0.43;76.37
32638;BME280;19045;52.268;10.506;2023-02-28T04:26:32;102152.41;;;0.42;77.03
32638;BME280;19045;52.268;10.506;2023-02-28T04:29:02;102146.41;;;0.40;77.45
32638;BME280;19045;52.268;10.506;2023-02-28T04:31:28;102152.53;;;0.41;77.95
32638;BME280;19045;52.268;10.506;2023-02-28T04:33:55;102152.75;;;0.30;79.12
32638;BME280;19045;52.268;10.506;2023-02-28T04:36:22;102151.38;;;0.26;79.44
32638;BME280;19045;52.268;10.506;2023-02-28T04:38:49;102149.16;;;0.21;79.87
32638;BME280;19045;52.268;10.506;2023-02-28T04:41:16;102155.28;;;0.22;80.54
32638;BME280;19045;52.268;10.506;2023-02-28T04:43:44;102159.59;;;0.23;80.35
32638;BME280;19045;52.268;10.506;2023-02-28T04:46:11;102160.53;;;0.31;79.04
32638;BME280;19045;52.268;10.506;2023-02-28T04:48:39;102161.34;;;0.32;78.60
32638;BME280;19045;52.268;10.506;2023-02-28T04:51:07;102156.78;;;0.24;78.41
32638;BME280;19045;52.268;10.506;2023-02-28T04:53:35;102166.44;;;0.16;79.45
32638;BME280;19045;52.268;10.506;2023-02-28T04:56:02;102165.19;;;0.10;79.28
32638;BME280;19045;52.268;10.506;2023-02-28T04:58:29;102155.38;;;0.03;79.67
32638;BME280;19045;52.268;10.506;2023-02-28T05:01:04;102152.03;;;0.00;79.64
32638;BME280;19045;52.268;10.506;2023-02-28T05:03:38;102160.56;;;-0.06;79.66
32638;BME280;19045;52.268;10.506;2023-02-28T05:06:05;102159.88;;;-0.08;79.59
32638;BME280;19045;52.268;10.506;2023-02-28T05:08:32;102154.06;;;-0.11;79.91
32638;BME280;19045;52.268;10.506;2023-02-28T05:10:59;102157.69;;;-0.22;80.58
32638;BME280;19045;52.268;10.506;2023-02-28T05:13:27;102163.09;;;-0.14;80.58
32638;BME280;19045;52.268;10.506;2023-02-28T05:15:53;102154.19;;;-0.13;80.19
32638;BME280;19045;52.268;10.506;2023-02-28T05:18:21;102156.28;;;-0.16;80.89
32638;BME280;19045;52.268;10.506;2023-02-28T05:20:48;102158.75;;;-0.05;80.08
32638;BME280;19045;52.268;10.506;2023-02-28T05:23:15;102163.78;;;-0.12;80.55
32638;BME280;19045;52.268;10.506;2023-02-28T05:25:43;102163.34;;;-0.07;80.82
32638;BME280;19045;52.268;10.506;2023-02-28T05:28:10;102152.09;;;-0.09;80.70
32638;BME280;19045;52.268;10.506;2023-02-28T05:30:37;102166.13;;;-0.09;80.78
32638;BME280;19045;52.268;10.506;2023-02-28T05:33:03;102160.00;;;-0.09;81.12
32638;BME280;19045;52.268;10.506;2023-02-28T05:35:31;102162.22;;;-0.05;80.73
32638;BME280;19045;52.268;10.506;2023-02-28T05:37:58;102155.69;;;-0.01;80.23
32638;BME280;19045;52.268;10.506;2023-02-28T05:40:25;102145.94;;;0.00;79.71
32638;BME280;19045;52.268;10.506;2023-02-28T05:42:51;102157.06;;;-0.06;80.37
32638;BME280;19045;52.268;10.506;2023-02-28T05:45:18;102161.38;;;-0.05;80.24
32638;BME280;19045;52.268;10.506;2023-02-28T05:47:45;102159.59;;;-0.05;80.19
32638;BME280;19045;52.268;10.506;2023-02-28T05:50:11;102161.25;;;-0.04;79.46
32638;BME280;19045;52.268;10.506;2023-02-28T05:52:39;102164.16;;;0.03;79.36
32638;BME280;19045;52.268;10.506;2023-02-28T05:55:07;102168.94;;;-0.10;79.89
32638;BME280;19045;52.268;10.506;2023-02-28T05:57:33;102170.19;;;-0.14;80.68
32638;BME280;19045;52.268;10.506;2023-02-28T06:00:00;102169.09;;;-0.21;81.04
32638;BME280;19045;52.268;10.506;2023-02-28T06:02:27;102170.03;;;-0.13;80.89
32638;BME280;19045;52.268;10.506;2023-02-28T06:04:54;102165.00;;;-0.06;79.99
32638;BME280;19045;52.268;10.506;2023-02-28T06:07:20;102177.28;;;-0.15;80.87
32638;BME280;19045;52.268;10.506;2023-02-28T06:09:49;102184.91;;;-0.12;80.96
32638;BME280;19045;52.268;10.506;2023-02-28T06:12:15;102177.66;;;-0.10;79.92
32638;BME280;19045;52.268;10.506;2023-02-28T06:14:43;102182.31;;;-0.21;80.40
32638;BME280;19045;52.268;10.506;2023-02-28T06:17:09;102180.06;;;-0.26;81.14
32638;BME280;19045;52.268;10.506;2023-02-28T06:19:37;102182.88;;;-0.27;81.34
32638;BME280;19045;52.268;10.506;2023-02-28T06:22:05;102188.28;;;-0.29;81.46
32638;BME280;19045;52.268;10.506;2023-02-28T06:24:31;102187.16;;;-0.17;81.01
32638;BME280;19045;52.268;10.506;2023-02-28T06:27:00;102185.03;;;-0.13;80.20
32638;BME280;19045;52.268;10.506;2023-02-28T06:29:30;102192.69;;;-0.20;81.17
32638;BME280;19045;52.268;10.506;2023-02-28T06:31:57;102196.16;;;-0.10;80.71
32638;BME280;19045;52.268;10.506;2023-02-28T06:34:24;102196.16;;;-0.10;80.58
32638;BME280;19045;52.268;10.506;2023-02-28T06:36:52;102194.63;;;-0.12;80.38
32638;BME280;19045;52.268;10.506;2023-02-28T06:39:19;102198.94;;;-0.11;80.55
32638;BME280;19045;52.268;10.506;2023-02-28T06:41:45;102204.47;;;-0.05;80.35
32638;BME280;19045;52.268;10.506;2023-02-28T06:44:16;102212.13;;;-0.02;80.08
32638;BME280;19045;52.268;10.506;2023-02-28T06:46:44;102210.06;;;-0.08;80.10
32638;BME280;19045;52.268;10.506;2023-02-28T06:49:11;102204.78;;;-0.08;80.57
32638;BME280;19045;52.268;10.506;2023-02-28T06:51:39;102202.13;;;-0.08;80.31
32638;BME280;19045;52.268;10.506;2023-02-28T06:54:07;102220.91;;;-0.11;80.78
32638;BME280;19045;52.268;10.506;2023-02-28T06:56:34;102213.00;;;-0.11;81.56
32638;BME280;19045;52.268;10.506;2023-02-28T06:59:01;102218.63;;;0.04;80.76
32638;BME280;19045;52.268;10.506;2023-02-28T07:01:30;102210.31;;;-0.01;80.36
32638;BME280;19045;52.268;10.506;2023-02-28T07:03:57;102216.44;;;-0.01;80.74
32638;BME280;19045;52.268;10.506;2023-02-28T07:06:24;102216.81;;;0.05;80.94
32638;BME280;19045;52.268;10.506;2023-02-28T07:08:52;102220.41;;;0.13;81.04
32638;BME280;19045;52.268;10.506;2023-02-28T07:11:19;102215.72;;;0.34;80.06
32638;BME280;19045;52.268;10.506;2023-02-28T07:13:47;102223.13;;;0.58;78.75
32638;BME280;19045;52.268;10.506;2023-02-28T07:16:14;102219.75;;;0.83;76.44
32638;BME280;19045;52.268;10.506;2023-02-28T07:18:42;102220.84;;;1.26;75.61
32638;BME280;19045;52.268;10.506;2023-02-28T07:21:09;102224.31;;;1.70;72.45
32638;BME280;19045;52.268;10.506;2023-02-28T07:23:37;102227.91;;;2.12;69.74
32638;BME280;19045;52.268;10.506;2023-02-28T07:26:04;102225.59;;;2.59;68.26
32638;BME280;19045;52.268;10.506;2023-02-28T07:28:32;102227.56;;;3.23;67.24
32638;BME280;19045;52.268;10.506;2023-02-28T07:31:03;102221.88;;;3.99;63.76
32638;BME280;19045;52.268;10.506;2023-02-28T07:33:30;102225.44;;;4.30;60.62
32638;BME280;19045;52.268;10.506;2023-02-28T07:36:01;102219.75;;;4.72;58.27
32638;BME280;19045;52.268;10.506;2023-02-28T07:38:28;102230.28;;;5.19;56.57
32638;BME280;19045;52.268;10.506;2023-02-28T07:40:55;102224.22;;;5.48;55.67
32638;BME280;19045;52.268;10.506;2023-02-28T07:43:21;102222.66;;;5.76;53.73
32638;BME280;19045;52.268;10.506;2023-02-28T07:45:48;102220.31;;;6.10;52.70
32638;BME280;19045;52.268;10.506;2023-02-28T07:48:14;102229.91;;;6.19;52.19
32638;BME280;19045;52.268;10.506;2023-02-28T07:50:41;102226.84;;;5.70;52.47
32638;BME280;19045;52.268;10.506;2023-02-28T07:53:09;102228.81;;;4.94;54.52
32638;BME280;19045;52.268;10.506;2023-02-28T07:55:36;102232.75;;;4.36;56.34
32638;BME280;19045;52.268;10.506;2023-02-28T07:58:02;102240.03;;;3.79;58.65
32638;BME280;19045;52.268;10.506;2023-02-28T08:00:29;102224.94;;;3.47;60.07
32638;BME280;19045;52.268;10.506;2023-02-28T08:02:57;102224.09;;;3.15;61.14
32638;BME280;19045;52.268;10.506;2023-02-28T08:05:24;102219.13;;;3.11;61.42
32638;BME280;19045;52.268;10.506;2023-02-28T08:07:50;102234.22;;;3.11;62.16
32638;BME280;19045;52.268;10.506;2023-02-28T08:10:20;102222.09;;;3.17;61.84
32638;BME280;19045;52.268;10.506;2023-02-28T08:12:46;102221.75;;;3.20;62.14
32638;BME280;19045;52.268;10.506;2023-02-28T08:15:13;102222.94;;;3.33;61.77
32638;BME280;19045;52.268;10.506;2023-02-28T08:17:39;102222.75;;;3.35;62.15
32638;BME280;19045;52.268;10.506;2023-02-28T08:20:07;102231.06;;;3.32;62.21
32638;BME280;19045;52.268;10.506;2023-02-28T08:22:35;102231.56;;;3.27;62.21
32638;BME280;19045;52.268;10.506;2023-02-28T08:25:02;102241.53;;;3.17;62.32
32638;BME280;19045;52.268;10.506;2023-02-28T08:27:30;102242.31;;;3.09;63.06
32638;BME280;19045;52.268;10.506;2023-02-28T08:29:57;102234.03;;;3.12;63.77
32638;BME280;19045;52.268;10.506;2023-02-28T08:32:23;102232.06;;;3.23;63.32
32638;BME280;19045;52.268;10.506;2023-02-28T08:34:50;102235.41;;;3.41;63.73
32638;BME280;19045;52.268;10.506;2023-02-28T08:37:16;102238.06;;;4.28;59.78
32638;BME280;19045;52.268;10.506;2023-02-28T08:39:43;102235.09;;;5.24;57.55
32638;BME280;19045;52.268;10.506;2023-02-28T08:42:10;102234.63;;;6.83;51.00
32638;BME280;19045;52.268;10.506;2023-02-28T08:44:37;102233.47;;;8.04;47.42
32638;BME280;19045;52.268;10.506;2023-02-28T08:47:05;102229.38;;;8.90;45.54
32638;BME280;19045;52.268;10.506;2023-02-28T08:49:32;102233.59;;;9.65;42.82
32638;BME280;19045;52.268;10.506;2023-02-28T08:52:02;102224.16;;;10.59;41.89
32638;BME280;19045;52.268;10.506;2023-02-28T08:54:28;102227.94;;;11.52;39.40
32638;BME280;19045;52.268;10.506;2023-02-28T08:56:56;102229.78;;;12.44;38.20
32638;BME280;19045;52.268;10.506;2023-02-28T08:59:23;102224.81;;;13.07;36.23
32638;BME280;19045;52.268;10.506;2023-02-28T09:01:51;102227.34;;;13.96;35.57
32638;BME280;19045;52.268;10.506;2023-02-28T09:04:18;102235.34;;;14.38;34.44
32638;BME280;19045;52.268;10.506;2023-02-28T09:06:45;102237.56;;;15.09;33.32
32638;BME280;19045;52.268;10.506;2023-02-28T09:09:14;102237.31;;;15.89;32.49
32638;BME280;19045;52.268;10.506;2023-02-28T09:11:40;102234.72;;;15.77;32.49
32638;BME280;19045;52.268;10.506;2023-02-28T09:14:07;102239.63;;;15.64;32.38
32638;BME280;19045;52.268;10.506;2023-02-28T09:16:34;102235.44;;;15.89;31.92
32638;BME280;19045;52.268;10.506;2023-02-28T09:19:02;102237.44;;;15.32;33.08
32638;BME280;19045;52.268;10.506;2023-02-28T09:21:29;102223.41;;;16.57;31.19
32638;BME280;19045;52.268;10.506;2023-02-28T09:23:55;102233.53;;;17.15;29.93
32638;BME280;19045;52.268;10.506;2023-02-28T09:26:24;102227.09;;;17.90;29.78
32638;BME280;19045;52.268;10.506;2023-02-28T09:28:54;102231.03;;;18.56;28.67
32638;BME280;19045;52.268;10.506;2023-02-28T09:31:23;102232.50;;;18.79;28.29
32638;BME280;19045;52.268;10.506;2023-02-28T09:33:51;102235.34;;;19.95;27.66
32638;BME280;19045;52.268;10.506;2023-02-28T09:36:19;102239.72;;;20.80;26.18
32638;BME280;19045;52.268;10.506;2023-02-28T09:38:47;102225.19;;;20.90;25.41
32638;BME280;19045;52.268;10.506;2023-02-28T09:41:15;102237.09;;;18.21;27.94
32638;BME280;19045;52.268;10.506;2023-02-28T09:43:46;102233.00;;;18.19;29.06
32638;BME280;19045;52.268;10.506;2023-02-28T09:46:30;102234.78;;;16.81;30.54
32638;BME280;19045;52.268;10.506;2023-02-28T09:49:00;102242.19;;;17.71;29.32
32638;BME280;19045;52.268;10.506;2023-02-28T09:51:39;102230.06;;;16.11;31.03
32638;BME280;19045;52.268;10.506;2023-02-28T09:54:12;102234.31;;;17.69;29.05
32638;BME280;19045;52.268;10.506;2023-02-28T09:56:43;102231.44;;;18.95;28.20
32638;BME280;19045;52.268;10.506;2023-02-28T09:59:16;102235.41;;;18.57;28.23
32638;BME280;19045;52.268;10.506;2023-02-28T10:01:51;102233.59;;;16.72;29.40
32638;BME280;19045;52.268;10.506;2023-02-28T10:04:35;102233.66;;;17.57;28.67
32638;BME280;19045;52.268;10.506;2023-02-28T10:07:13;102235.69;;;18.55;27.65
32638;BME280;19045;52.268;10.506;2023-02-28T10:09:45;102222.72;;;21.37;24.53
32638;BME280;19045;52.268;10.506;2023-02-28T10:12:15;102227.19;;;24.01;22.29
32638;BME280;19045;52.268;10.506;2023-02-28T10:14:45;102223.56;;;26.47;19.70
32638;BME280;19045;52.268;10.506;2023-02-28T10:17:16;102228.44;;;24.63;20.04
32638;BME280;19045;52.268;10.506;2023-02-28T10:19:53;102234.53;;;24.19;20.81
32638;BME280;19045;52.268;10.506;2023-02-28T10:22:26;102240.63;;;21.14;22.86
32638;BME280;19045;52.268;10.506;2023-02-28T10:24:57;102230.00;;;20.49;23.70
32638;BME280;19045;52.268;10.506;2023-02-28T10:27:30;102235.47;;;17.78;26.09
32638;BME280;19045;52.268;10.506;2023-02-28T10:29:58;102239.03;;;14.60;29.42
32638;BME280;19045;52.268;10.506;2023-02-28T10:32:27;102235.25;;;13.33;31.57
32638;BME280;19045;52.268;10.506;2023-02-28T10:34:57;102233.75;;;10.29;36.10
32638;BME280;19045;52.268;10.506;2023-02-28T10:37:26;102237.63;;;12.27;34.53
32638;BME280;19045;52.268;10.506;2023-02-28T10:39:53;102228.72;;;13.64;31.87
32638;BME280;19045;52.268;10.506;2023-02-28T10:42:25;102228.44;;;13.42;32.35
32638;BME280;19045;52.268;10.506;2023-02-28T10:45:11;102230.16;;;14.76;31.05
32638;BME280;19045;52.268;10.506;2023-02-28T10:47:48;102240.59;;;15.74;29.81
32638;BME280;19045;52.268;10.506;2023-02-28T10:50:35;102230.56;;;14.57;30.50
32638;BME280;19045;52.268;10.506;2023-02-28T10:53:33;102224.22;;;13.46;32.14
32638;BME280;19045;52.268;10.506;2023-02-28T10:56:02;102215.88;;;17.76;27.23
32638;BME280;19045;52.268;10.506;2023-02-28T10:58:31;102209.38;;;23.02;22.02
32638;BME280;19045;52.268;10.506;2023-02-28T11:01:13;102205.69;;;26.27;18.50
32638;BME280;19045;52.268;10.506;2023-02-28T11:03:40;102211.97;;;27.18;16.61
32638;BME280;19045;52.268;10.506;2023-02-28T11:06:12;102217.63;;;27.73;17.06
32638;BME280;19045;52.268;10.506;2023-02-28T11:08:48;102209.78;;;29.01;16.64
32638;BME280;19045;52.268;10.506;2023-02-28T11:11:16;102222.09;;;26.41;17.27
32638;BME280;19045;52.268;10.506;2023-02-28T11:13:45;102223.03;;;19.01;22.25
32638;BME280;19045;52.268;10.506;2023-02-28T11:16:13;102223.84;;;16.11;25.41
32638;BME280;19045;52.268;10.506;2023-02-28T11:18:44;102226.69;;;14.53;27.42
32638;BME280;19045;52.268;10.506;2023-02-28T11:21:19;102219.16;;;12.49;29.08
32638;BME280;19045;52.268;10.506;2023-02-28T11:23:49;102216.91;;;12.94;29.12
32638;BME280;19045;52.268;10.506;2023-02-28T11:26:38;102211.88;;;13.39;29.44
32638;BME280;19045;52.268;10.506;2023-02-28T11:29:19;102204.72;;;16.44;26.33
32638;BME280;19045;52.268;10.506;2023-02-28T11:32:05;102200.91;;;17.10;24.84
32638;BME280;19045;52.268;10.506;2023-02-28T11:34:37;102200.28;;;20.47;21.98
32638;BME280;19045;52.268;10.506;2023-02-28T11:37:08;102195.53;;;23.77;19.32
32638;BME280;19045;52.268;10.506;2023-02-28T11:39:38;102188.88;;;23.50;18.60
32638;BME280;19045;52.268;10.506;2023-02-28T11:42:21;102191.31;;;21.63;20.07
32638;BME280;19045;52.268;10.506;2023-02-28T11:45:00;102187.53;;;20.18;21.17
32638;BME280;19045;52.268;10.506;2023-02-28T11:47:34;102186.53;;;18.30;23.01
32638;BME280;19045;52.268;10.506;2023-02-28T11:50:16;102196.97;;;16.31;24.33
32638;BME280;19045;52.268;10.506;2023-02-28T11:52:52;102177.84;;;20.99;20.70
32638;BME280;19045;52.268;10.506;2023-02-28T11:55:20;102181.25;;;20.27;21.17
32638;BME280;19045;52.268;10.506;2023-02-28T12:03:42;102176.69;;;29.05;15.21
32638;BME280;19045;52.268;10.506;2023-02-28T12:06:18;102172.63;;;29.23;14.77
32638;BME280;19045;52.268;10.506;2023-02-28T12:09:00;102167.25;;;30.96;13.77
32638;BME280;19045;52.268;10.506;2023-02-28T12:11:45;102161.81;;;33.10;12.42
32638;BME280;19045;52.268;10.506;2023-02-28T12:14:25;102160.78;;;33.83;12.23
32638;BME280;19045;52.268;10.506;2023-02-28T12:16:59;102160.66;;;33.76;12.03
32638;BME280;19045;52.268;10.506;2023-02-28T12:19:48;102173.19;;;33.63;12.08
32638;BME280;19045;52.268;10.506;2023-02-28T12:22:39;102164.69;;;34.05;12.21
32638;BME280;19045;52.268;10.506;2023-02-28T12:25:30;102157.84;;;34.25;11.78
32638;BME280;19045;52.268;10.506;2023-02-28T12:28:07;102163.38;;;34.77;11.61
32638;BME280;19045;52.268;10.506;2023-02-28T12:30:37;102159.53;;;31.17;12.54
32638;BME280;19045;52.268;10.506;2023-02-28T12:33:09;102145.59;;;33.16;12.26
32638;BME280;19045;52.268;10.506;2023-02-28T12:35:43;102140.50;;;31.04;13.05
32638;BME280;19045;52.268;10.506;2023-02-28T12:38:15;102143.75;;;31.81;13.01
32638;BME280;19045;52.268;10.506;2023-02-28T12:40:45;102144.59;;;32.66;12.71
32638;BME280;19045;52.268;10.506;2023-02-28T12:43:16;102137.94;;;31.54;12.77
32638;BME280;19045;52.268;10.506;2023-02-28T12:45:48;102138.72;;;32.71;12.50
32638;BME280;19045;52.268;10.506;2023-02-28T12:48:20;102123.56;;;30.81;13.20
32638;BME280;19045;52.268;10.506;2023-02-28T12:50:48;102121.00;;;31.16;13.20
32638;BME280;19045;52.268;10.506;2023-02-28T12:53:21;102117.00;;;33.19;12.18
32638;BME280;19045;52.268;10.506;2023-02-28T12:56:01;102116.63;;;35.08;11.71
32638;BME280;19045;52.268;10.506;2023-02-28T12:58:38;102112.25;;;34.70;10.97
32638;BME280;19045;52.268;10.506;2023-02-28T13:04:46;102106.41;;;35.59;10.85
32638;BME280;19045;52.268;10.506;2023-02-28T13:07:34;102100.47;;;34.57;10.94
32638;BME280;19045;52.268;10.506;2023-02-28T13:10:05;102101.91;;;33.65;11.71
32638;BME280;19045;52.268;10.506;2023-02-28T13:12:33;102096.16;;;34.07;11.84